Monk Fryston, United Kingdom
Current Conditions -  °F | °C
As of 8:20 AM on Tuesday 21 Oct 2014 (Local Time) from EGNM Reporting Station
Rain Showers Rain Showers  
Wind Chill: 40°   Ceiling: Unl
Heat Index: 48°   Visibility: 6mi
Dew Point: 43°   Wind: 25mph
Humidity: 82%   Direction: 280°W
Pressure: 29.35"   Gusts: 44mph
Location:  53.76°N, 1.24°W
Report Text: EGNM 210720Z 28022G38KT 250V310 9999 -SHRA FEW009 SCT022 09/06 Q0994
Loading
Personal Weather Stations






























Interactive Weather Map New forecast layout! Learn more

10-Day Weather Forecast

Advertisements
Track Severe Weather on mobile